Yoakum, Texas
Current Conditions -  °F | °C
As of 6:15 PM on Wednesday 22 Oct 2014 (Local Time) from KT20 Reporting Station
Clear Clear  
Wind Chill: 82°   Ceiling: Unl
Heat Index: 82°   Visibility: 10mi
Dew Point: 58°   Wind: 6mph
Humidity: 45%   Direction: 60°ENE
Pressure: 30.03"   Gusts: NA
Location:  29.29°N, 97.15°W
Report Text: KT20 222315Z AUTO 06005KT 10SM CLR 28/15 A3003 RMK AO2 T02750146
Loading
Personal Weather Stations






























Interactive Weather Map
Tropical Storm Tracking
New forecast layout! Learn more

10-Day Weather Forecast

Advertisements
Track Severe Weather on mobile